sensor_id;sensor_type;location;lat;lon;timestamp;temperature;humidity
26414;DHT22;14108;53.668;10.288;2022-12-05T00:02:21;7.40;77.70
26414;DHT22;14108;53.668;10.288;2022-12-05T00:04:48;7.40;77.60
26414;DHT22;14108;53.668;10.288;2022-12-05T00:07:15;7.40;77.60
26414;DHT22;14108;53.668;10.288;2022-12-05T00:09:43;7.40;77.60
26414;DHT22;14108;53.668;10.288;2022-12-05T00:12:10;7.40;77.60
26414;DHT22;14108;53.668;10.288;2022-12-05T00:14:37;7.40;77.60
26414;DHT22;14108;53.668;10.288;2022-12-05T00:17:04;7.40;77.70
26414;DHT22;14108;53.668;10.288;2022-12-05T00:19:31;7.40;78.30
26414;DHT22;14108;53.668;10.288;2022-12-05T00:21:58;7.40;77.70
26414;DHT22;14108;53.668;10.288;2022-12-05T00:24:25;7.40;77.40
26414;DHT22;14108;53.668;10.288;2022-12-05T00:26:53;7.50;77.80
26414;DHT22;14108;53.668;10.288;2022-12-05T00:29:20;7.50;77.80
26414;DHT22;14108;53.668;10.288;2022-12-05T00:31:47;7.50;77.80
26414;DHT22;14108;53.668;10.288;2022-12-05T00:34:14;7.50;77.80
26414;DHT22;14108;53.668;10.288;2022-12-05T00:36:41;7.50;77.70
26414;DHT22;14108;53.668;10.288;2022-12-05T00:39:10;7.50;77.70
26414;DHT22;14108;53.668;10.288;2022-12-05T00:41:38;7.50;77.70
26414;DHT22;14108;53.668;10.288;2022-12-05T00:44:06;7.50;77.70
26414;DHT22;14108;53.668;10.288;2022-12-05T00:46:34;7.50;77.70
26414;DHT22;14108;53.668;10.288;2022-12-05T00:49:03;7.60;77.80
26414;DHT22;14108;53.668;10.288;2022-12-05T00:51:32;7.60;77.80
26414;DHT22;14108;53.668;10.288;2022-12-05T00:54:01;7.60;77.80
26414;DHT22;14108;53.668;10.288;2022-12-05T00:56:30;7.60;77.60
26414;DHT22;14108;53.668;10.288;2022-12-05T00:58:58;7.60;77.50
26414;DHT22;14108;53.668;10.288;2022-12-05T01:01:28;7.60;77.50
26414;DHT22;14108;53.668;10.288;2022-12-05T01:03:59;7.60;78.20
26414;DHT22;14108;53.668;10.288;2022-12-05T01:06:27;7.60;77.50
26414;DHT22;14108;53.668;10.288;2022-12-05T01:08:55;7.60;77.50
26414;DHT22;14108;53.668;10.288;2022-12-05T01:11:24;7.60;77.60
26414;DHT22;14108;53.668;10.288;2022-12-05T01:13:52;7.60;77.60
26414;DHT22;14108;53.668;10.288;2022-12-05T01:16:22;7.60;77.70
26414;DHT22;14108;53.668;10.288;2022-12-05T01:18:50;7.60;77.70
26414;DHT22;14108;53.668;10.288;2022-12-05T01:21:17;7.60;77.80
26414;DHT22;14108;53.668;10.288;2022-12-05T01:23:44;7.60;77.80
26414;DHT22;14108;53.668;10.288;2022-12-05T01:26:13;7.60;77.90
26414;DHT22;14108;53.668;10.288;2022-12-05T01:28:41;7.60;78.00
26414;DHT22;14108;53.668;10.288;2022-12-05T01:31:17;7.60;78.00
26414;DHT22;14108;53.668;10.288;2022-12-05T01:33:44;7.60;78.00
26414;DHT22;14108;53.668;10.288;2022-12-05T01:36:12;7.60;78.10
26414;DHT22;14108;53.668;10.288;2022-12-05T01:38:40;7.60;78.00
26414;DHT22;14108;53.668;10.288;2022-12-05T01:41:10;7.70;78.10
26414;DHT22;14108;53.668;10.288;2022-12-05T01:43:54;7.70;78.20
26414;DHT22;14108;53.668;10.288;2022-12-05T01:46:21;7.60;78.20
26414;DHT22;14108;53.668;10.288;2022-12-05T01:48:50;7.70;78.30
26414;DHT22;14108;53.668;10.288;2022-12-05T01:51:17;7.70;79.40
26414;DHT22;14108;53.668;10.288;2022-12-05T01:53:45;7.80;80.00
26414;DHT22;14108;53.668;10.288;2022-12-05T01:56:13;7.80;79.40
26414;DHT22;14108;53.668;10.288;2022-12-05T01:58:41;7.80;78.80
26414;DHT22;14108;53.668;10.288;2022-12-05T02:01:10;7.80;78.30
26414;DHT22;14108;53.668;10.288;2022-12-05T02:03:40;7.80;78.10
26414;DHT22;14108;53.668;10.288;2022-12-05T02:06:09;7.80;77.90
26414;DHT22;14108;53.668;10.288;2022-12-05T02:08:37;7.70;77.80
26414;DHT22;14108;53.668;10.288;2022-12-05T02:11:06;7.80;77.90
26414;DHT22;14108;53.668;10.288;2022-12-05T02:13:49;7.80;78.00
26414;DHT22;14108;53.668;10.288;2022-12-05T02:16:26;7.70;78.10
26414;DHT22;14108;53.668;10.288;2022-12-05T02:19:03;7.70;78.00
26414;DHT22;14108;53.668;10.288;2022-12-05T02:21:59;7.70;78.10
26414;DHT22;14108;53.668;10.288;2022-12-05T02:30:16;7.70;78.10
26414;DHT22;14108;53.668;10.288;2022-12-05T02:33:05;7.70;78.30
26414;DHT22;14108;53.668;10.288;2022-12-05T02:35:44;7.70;78.40
26414;DHT22;14108;53.668;10.288;2022-12-05T02:38:23;7.70;78.30
26414;DHT22;14108;53.668;10.288;2022-12-05T02:40:57;7.70;78.40
26414;DHT22;14108;53.668;10.288;2022-12-05T02:43:31;7.70;78.50
26414;DHT22;14108;53.668;10.288;2022-12-05T02:46:05;7.70;78.60
26414;DHT22;14108;53.668;10.288;2022-12-05T02:48:33;7.70;78.70
26414;DHT22;14108;53.668;10.288;2022-12-05T02:51:03;7.80;79.20
26414;DHT22;14108;53.668;10.288;2022-12-05T02:53:31;7.80;78.20
26414;DHT22;14108;53.668;10.288;2022-12-05T02:56:01;7.70;78.60
26414;DHT22;14108;53.668;10.288;2022-12-05T03:01:04;7.70;78.80
26414;DHT22;14108;53.668;10.288;2022-12-05T03:03:33;7.60;81.10
26414;DHT22;14108;53.668;10.288;2022-12-05T03:06:03;7.70;80.50
26414;DHT22;14108;53.668;10.288;2022-12-05T03:08:36;7.70;79.80
26414;DHT22;14108;53.668;10.288;2022-12-05T03:11:06;7.80;79.40
26414;DHT22;14108;53.668;10.288;2022-12-05T03:16:19;7.80;79.00
26414;DHT22;14108;53.668;10.288;2022-12-05T03:18:49;7.80;79.00
26414;DHT22;14108;53.668;10.288;2022-12-05T03:21:24;7.80;78.90
26414;DHT22;14108;53.668;10.288;2022-12-05T03:23:57;7.90;78.90
26414;DHT22;14108;53.668;10.288;2022-12-05T03:29:28;7.90;78.90
26414;DHT22;14108;53.668;10.288;2022-12-05T03:34:48;7.80;80.10
26414;DHT22;14108;53.668;10.288;2022-12-05T03:37:29;7.90;79.40
26414;DHT22;14108;53.668;10.288;2022-12-05T03:40:05;7.90;78.90
26414;DHT22;14108;53.668;10.288;2022-12-05T03:42:37;7.90;78.80
26414;DHT22;14108;53.668;10.288;2022-12-05T03:45:09;7.90;78.70
26414;DHT22;14108;53.668;10.288;2022-12-05T03:50:17;7.90;78.70
26414;DHT22;14108;53.668;10.288;2022-12-05T03:52:47;7.80;78.60
26414;DHT22;14108;53.668;10.288;2022-12-05T03:55:16;7.80;78.60
26414;DHT22;14108;53.668;10.288;2022-12-05T03:57:49;7.80;78.70
26414;DHT22;14108;53.668;10.288;2022-12-05T04:00:20;7.80;78.70
26414;DHT22;14108;53.668;10.288;2022-12-05T04:02:51;7.80;79.40
26414;DHT22;14108;53.668;10.288;2022-12-05T04:05:23;7.80;78.70
26414;DHT22;14108;53.668;10.288;2022-12-05T04:07:55;7.80;78.50
26414;DHT22;14108;53.668;10.288;2022-12-05T04:10:27;7.80;78.50
26414;DHT22;14108;53.668;10.288;2022-12-05T04:12:57;7.70;79.30
26414;DHT22;14108;53.668;10.288;2022-12-05T04:15:46;7.70;79.40
26414;DHT22;14108;53.668;10.288;2022-12-05T04:18:34;7.70;78.70
26414;DHT22;14108;53.668;10.288;2022-12-05T04:21:02;7.70;78.70
26414;DHT22;14108;53.668;10.288;2022-12-05T04:23:49;7.70;78.80
26414;DHT22;14108;53.668;10.288;2022-12-05T04:28:04;7.70;78.80
26414;DHT22;14108;53.668;10.288;2022-12-05T04:30:39;7.70;78.40
26414;DHT22;14108;53.668;10.288;2022-12-05T04:33:10;7.70;78.60
26414;DHT22;14108;53.668;10.288;2022-12-05T04:35:45;7.70;78.70
26414;DHT22;14108;53.668;10.288;2022-12-05T04:38:20;7.70;78.70
26414;DHT22;14108;53.668;10.288;2022-12-05T04:40:53;7.70;78.70
26414;DHT22;14108;53.668;10.288;2022-12-05T04:43:22;7.70;78.80
26414;DHT22;14108;53.668;10.288;2022-12-05T04:45:52;7.70;78.70
26414;DHT22;14108;53.668;10.288;2022-12-05T04:48:22;7.70;78.80
26414;DHT22;14108;53.668;10.288;2022-12-05T04:50:53;7.60;78.70
26414;DHT22;14108;53.668;10.288;2022-12-05T04:53:21;7.70;78.80
26414;DHT22;14108;53.668;10.288;2022-12-05T04:55:52;7.70;78.80
26414;DHT22;14108;53.668;10.288;2022-12-05T04:58:23;7.60;78.70
26414;DHT22;14108;53.668;10.288;2022-12-05T05:00:57;7.60;78.70
26414;DHT22;14108;53.668;10.288;2022-12-05T05:03:30;7.60;78.70
26414;DHT22;14108;53.668;10.288;2022-12-05T05:06:00;7.70;78.70
26414;DHT22;14108;53.668;10.288;2022-12-05T05:08:29;7.70;78.70
26414;DHT22;14108;53.668;10.288;2022-12-05T05:11:08;7.70;78.70
26414;DHT22;14108;53.668;10.288;2022-12-05T05:13:36;7.70;78.80
26414;DHT22;14108;53.668;10.288;2022-12-05T05:16:05;7.70;78.60
26414;DHT22;14108;53.668;10.288;2022-12-05T05:18:32;7.70;78.50
26414;DHT22;14108;53.668;10.288;2022-12-05T05:21:00;7.70;78.50
26414;DHT22;14108;53.668;10.288;2022-12-05T05:23:27;7.60;78.50
26414;DHT22;14108;53.668;10.288;2022-12-05T05:25:55;7.60;78.40
26414;DHT22;14108;53.668;10.288;2022-12-05T05:28:22;7.60;78.40
26414;DHT22;14108;53.668;10.288;2022-12-05T05:30:49;7.60;78.40
26414;DHT22;14108;53.668;10.288;2022-12-05T05:33:16;7.60;78.50
26414;DHT22;14108;53.668;10.288;2022-12-05T05:35:44;7.60;78.40
26414;DHT22;14108;53.668;10.288;2022-12-05T05:38:11;7.50;78.30
26414;DHT22;14108;53.668;10.288;2022-12-05T05:40:38;7.50;78.40
26414;DHT22;14108;53.668;10.288;2022-12-05T05:43:05;7.50;78.40
26414;DHT22;14108;53.668;10.288;2022-12-05T05:45:32;7.50;78.60
26414;DHT22;14108;53.668;10.288;2022-12-05T05:47:59;7.50;78.60
26414;DHT22;14108;53.668;10.288;2022-12-05T05:50:26;7.50;78.50
26414;DHT22;14108;53.668;10.288;2022-12-05T05:52:54;7.50;78.40
26414;DHT22;14108;53.668;10.288;2022-12-05T05:55:21;7.50;78.40
26414;DHT22;14108;53.668;10.288;2022-12-05T05:57:48;7.50;78.40
26414;DHT22;14108;53.668;10.288;2022-12-05T06:00:17;7.50;78.40
26414;DHT22;14108;53.668;10.288;2022-12-05T06:02:44;7.40;78.40
26414;DHT22;14108;53.668;10.288;2022-12-05T06:05:12;7.40;78.40
26414;DHT22;14108;53.668;10.288;2022-12-05T06:07:39;7.40;78.30
26414;DHT22;14108;53.668;10.288;2022-12-05T06:10:08;7.40;78.30
26414;DHT22;14108;53.668;10.288;2022-12-05T06:12:35;7.40;78.30
26414;DHT22;14108;53.668;10.288;2022-12-05T06:15:02;7.40;78.30
26414;DHT22;14108;53.668;10.288;2022-12-05T06:17:30;7.40;78.20
26414;DHT22;14108;53.668;10.288;2022-12-05T06:19:57;7.40;78.20
26414;DHT22;14108;53.668;10.288;2022-12-05T06:22:24;7.40;78.30
26414;DHT22;14108;53.668;10.288;2022-12-05T06:24:51;7.40;78.20
26414;DHT22;14108;53.668;10.288;2022-12-05T06:27:18;7.30;78.10
26414;DHT22;14108;53.668;10.288;2022-12-05T06:29:46;7.30;78.10
26414;DHT22;14108;53.668;10.288;2022-12-05T06:32:13;7.30;77.90
26414;DHT22;14108;53.668;10.288;2022-12-05T06:34:40;7.30;77.80
26414;DHT22;14108;53.668;10.288;2022-12-05T06:37:07;7.20;77.60
26414;DHT22;14108;53.668;10.288;2022-12-05T06:39:34;7.20;78.40
26414;DHT22;14108;53.668;10.288;2022-12-05T06:42:02;7.20;77.70
26414;DHT22;14108;53.668;10.288;2022-12-05T06:44:29;7.20;77.60
26414;DHT22;14108;53.668;10.288;2022-12-05T06:46:56;7.10;77.70
26414;DHT22;14108;53.668;10.288;2022-12-05T06:49:23;7.10;77.70
26414;DHT22;14108;53.668;10.288;2022-12-05T06:51:52;7.10;77.60
26414;DHT22;14108;53.668;10.288;2022-12-05T06:54:20;7.10;77.50
26414;DHT22;14108;53.668;10.288;2022-12-05T06:56:47;7.10;77.50
26414;DHT22;14108;53.668;10.288;2022-12-05T06:59:14;7.10;77.50
26414;DHT22;14108;53.668;10.288;2022-12-05T07:01:42;7.10;77.30
26414;DHT22;14108;53.668;10.288;2022-12-05T07:04:14;7.10;77.30
26414;DHT22;14108;53.668;10.288;2022-12-05T07:06:43;7.00;77.20
26414;DHT22;14108;53.668;10.288;2022-12-05T07:09:11;7.00;77.20
26414;DHT22;14108;53.668;10.288;2022-12-05T07:11:38;7.00;77.20
26414;DHT22;14108;53.668;10.288;2022-12-05T07:14:06;7.00;77.20
26414;DHT22;14108;53.668;10.288;2022-12-05T07:16:35;7.00;77.20
26414;DHT22;14108;53.668;10.288;2022-12-05T07:19:02;7.00;77.10
26414;DHT22;14108;53.668;10.288;2022-12-05T07:21:30;7.00;77.00
26414;DHT22;14108;53.668;10.288;2022-12-05T07:23:57;7.00;76.90
26414;DHT22;14108;53.668;10.288;2022-12-05T07:26:24;7.00;76.90
26414;DHT22;14108;53.668;10.288;2022-12-05T07:28:53;6.90;76.90
26414;DHT22;14108;53.668;10.288;2022-12-05T07:31:22;6.90;77.00
26414;DHT22;14108;53.668;10.288;2022-12-05T07:33:49;6.90;77.10
26414;DHT22;14108;53.668;10.288;2022-12-05T07:36:18;6.90;77.10
26414;DHT22;14108;53.668;10.288;2022-12-05T07:38:46;6.90;77.10
26414;DHT22;14108;53.668;10.288;2022-12-05T07:43:51;6.90;77.10
26414;DHT22;14108;53.668;10.288;2022-12-05T07:46:18;6.90;77.00
26414;DHT22;14108;53.668;10.288;2022-12-05T07:48:47;6.80;77.00
26414;DHT22;14108;53.668;10.288;2022-12-05T07:51:17;6.80;77.00
26414;DHT22;14108;53.668;10.288;2022-12-05T07:53:45;6.80;77.10
26414;DHT22;14108;53.668;10.288;2022-12-05T07:56:14;6.80;77.10
26414;DHT22;14108;53.668;10.288;2022-12-05T07:58:43;6.80;77.20
26414;DHT22;14108;53.668;10.288;2022-12-05T08:01:12;6.80;77.10
26414;DHT22;14108;53.668;10.288;2022-12-05T08:03:41;6.80;77.00
26414;DHT22;14108;53.668;10.288;2022-12-05T08:06:10;6.80;77.00
26414;DHT22;14108;53.668;10.288;2022-12-05T08:08:38;6.80;77.00
26414;DHT22;14108;53.668;10.288;2022-12-05T08:11:08;6.80;77.10
26414;DHT22;14108;53.668;10.288;2022-12-05T08:13:36;6.70;77.00
26414;DHT22;14108;53.668;10.288;2022-12-05T08:16:05;6.80;77.20
26414;DHT22;14108;53.668;10.288;2022-12-05T08:18:32;6.70;77.40
26414;DHT22;14108;53.668;10.288;2022-12-05T08:21:04;6.80;77.40
26414;DHT22;14108;53.668;10.288;2022-12-05T08:23:32;6.80;77.30
26414;DHT22;14108;53.668;10.288;2022-12-05T08:26:04;6.80;77.20
26414;DHT22;14108;53.668;10.288;2022-12-05T08:28:32;6.80;77.30
26414;DHT22;14108;53.668;10.288;2022-12-05T08:31:04;6.80;77.20
26414;DHT22;14108;53.668;10.288;2022-12-05T08:33:31;6.80;77.20
26414;DHT22;14108;53.668;10.288;2022-12-05T08:36:00;6.90;77.80
26414;DHT22;14108;53.668;10.288;2022-12-05T08:38:28;6.90;77.20
26414;DHT22;14108;53.668;10.288;2022-12-05T08:40:55;6.80;77.10
26414;DHT22;14108;53.668;10.288;2022-12-05T08:43:22;6.80;77.20
26414;DHT22;14108;53.668;10.288;2022-12-05T08:45:50;6.80;77.00
26414;DHT22;14108;53.668;10.288;2022-12-05T08:48:18;6.80;77.20
26414;DHT22;14108;53.668;10.288;2022-12-05T08:50:45;6.80;77.20
26414;DHT22;14108;53.668;10.288;2022-12-05T08:53:12;6.80;77.30
26414;DHT22;14108;53.668;10.288;2022-12-05T08:55:40;6.80;77.30
26414;DHT22;14108;53.668;10.288;2022-12-05T08:58:07;6.80;77.50
26414;DHT22;14108;53.668;10.288;2022-12-05T09:00:34;6.80;77.30
26414;DHT22;14108;53.668;10.288;2022-12-05T09:03:01;6.80;77.30
26414;DHT22;14108;53.668;10.288;2022-12-05T09:05:29;6.80;77.30
26414;DHT22;14108;53.668;10.288;2022-12-05T09:07:56;6.80;77.30
26414;DHT22;14108;53.668;10.288;2022-12-05T09:10:24;6.80;77.30
26414;DHT22;14108;53.668;10.288;2022-12-05T09:12:52;6.80;77.30
26414;DHT22;14108;53.668;10.288;2022-12-05T09:15:19;6.80;77.30
26414;DHT22;14108;53.668;10.288;2022-12-05T09:17:46;6.70;77.40
26414;DHT22;14108;53.668;10.288;2022-12-05T09:20:13;6.70;77.30
26414;DHT22;14108;53.668;10.288;2022-12-05T09:22:41;6.70;77.40
26414;DHT22;14108;53.668;10.288;2022-12-05T09:25:09;6.70;77.50
26414;DHT22;14108;53.668;10.288;2022-12-05T09:27:36;6.60;77.60
26414;DHT22;14108;53.668;10.288;2022-12-05T09:30:06;6.70;77.60
26414;DHT22;14108;53.668;10.288;2022-12-05T09:32:33;6.70;77.60
26414;DHT22;14108;53.668;10.288;2022-12-05T09:35:00;6.70;77.60
26414;DHT22;14108;53.668;10.288;2022-12-05T09:37:28;6.70;77.60
26414;DHT22;14108;53.668;10.288;2022-12-05T09:39:55;6.70;77.60
26414;DHT22;14108;53.668;10.288;2022-12-05T09:42:38;6.70;77.70
26414;DHT22;14108;53.668;10.288;2022-12-05T09:47:57;6.70;77.60
26414;DHT22;14108;53.668;10.288;2022-12-05T09:50:27;6.70;77.60
26414;DHT22;14108;53.668;10.288;2022-12-05T09:53:03;6.70;77.50
26414;DHT22;14108;53.668;10.288;2022-12-05T09:55:37;6.70;77.30
26414;DHT22;14108;53.668;10.288;2022-12-05T09:58:19;6.70;77.30
26414;DHT22;14108;53.668;10.288;2022-12-05T10:00:47;6.60;77.30
26414;DHT22;14108;53.668;10.288;2022-12-05T10:03:23;6.60;77.30
26414;DHT22;14108;53.668;10.288;2022-12-05T10:05:59;6.60;77.50
26414;DHT22;14108;53.668;10.288;2022-12-05T10:08:32;6.60;77.50
26414;DHT22;14108;53.668;10.288;2022-12-05T10:11:06;6.60;77.60
26414;DHT22;14108;53.668;10.288;2022-12-05T10:16:18;6.70;77.60
26414;DHT22;14108;53.668;10.288;2022-12-05T10:18:51;6.70;77.40
26414;DHT22;14108;53.668;10.288;2022-12-05T10:21:21;6.70;77.40
26414;DHT22;14108;53.668;10.288;2022-12-05T10:23:54;6.70;77.40
26414;DHT22;14108;53.668;10.288;2022-12-05T10:26:22;6.70;77.40
26414;DHT22;14108;53.668;10.288;2022-12-05T10:28:54;6.80;77.50
26414;DHT22;14108;53.668;10.288;2022-12-05T10:31:26;6.80;77.40
26414;DHT22;14108;53.668;10.288;2022-12-05T10:34:00;6.80;77.30
26414;DHT22;14108;53.668;10.288;2022-12-05T10:36:30;6.80;77.20
26414;DHT22;14108;53.668;10.288;2022-12-05T10:38:58;6.80;77.10
26414;DHT22;14108;53.668;10.288;2022-12-05T10:41:25;6.90;77.10
26414;DHT22;14108;53.668;10.288;2022-12-05T10:43:55;6.90;77.10
26414;DHT22;14108;53.668;10.288;2022-12-05T10:46:24;6.90;77.10
26414;DHT22;14108;53.668;10.288;2022-12-05T10:48:51;6.90;77.70
26414;DHT22;14108;53.668;10.288;2022-12-05T10:51:24;6.90;76.80
26414;DHT22;14108;53.668;10.288;2022-12-05T10:53:53;6.90;76.70
26414;DHT22;14108;53.668;10.288;2022-12-05T10:59:36;6.90;76.70
26414;DHT22;14108;53.668;10.288;2022-12-05T11:02:19;6.90;76.50
26414;DHT22;14108;53.668;10.288;2022-12-05T11:04:48;7.00;76.60
26414;DHT22;14108;53.668;10.288;2022-12-05T11:07:26;7.00;76.50
26414;DHT22;14108;53.668;10.288;2022-12-05T11:09:54;6.90;76.40
26414;DHT22;14108;53.668;10.288;2022-12-05T11:12:23;7.00;76.40
26414;DHT22;14108;53.668;10.288;2022-12-05T11:15:05;7.00;76.40
26414;DHT22;14108;53.668;10.288;2022-12-05T11:17:35;7.00;76.50
26414;DHT22;14108;53.668;10.288;2022-12-05T11:20:30;7.00;76.40
26414;DHT22;14108;53.668;10.288;2022-12-05T11:23:16;7.00;76.40
26414;DHT22;14108;53.668;10.288;2022-12-05T11:25:43;7.00;76.30
26414;DHT22;14108;53.668;10.288;2022-12-05T11:28:31;7.00;76.30
26414;DHT22;14108;53.668;10.288;2022-12-05T11:31:00;7.00;76.30
26414;DHT22;14108;53.668;10.288;2022-12-05T11:33:30;7.10;76.30
26414;DHT22;14108;53.668;10.288;2022-12-05T11:36:03;7.10;76.40
26414;DHT22;14108;53.668;10.288;2022-12-05T11:38:32;7.10;76.50
26414;DHT22;14108;53.668;10.288;2022-12-05T11:41:16;7.10;76.40
26414;DHT22;14108;53.668;10.288;2022-12-05T11:44:00;7.10;76.30
26414;DHT22;14108;53.668;10.288;2022-12-05T11:46:42;7.10;76.20
26414;DHT22;14108;53.668;10.288;2022-12-05T11:49:24;7.20;76.10
26414;DHT22;14108;53.668;10.288;2022-12-05T11:54:52;7.20;76.10
26414;DHT22;14108;53.668;10.288;2022-12-05T11:57:34;7.20;76.20
26414;DHT22;14108;53.668;10.288;2022-12-05T12:00:16;7.20;76.20
26414;DHT22;14108;53.668;10.288;2022-12-05T12:03:02;7.20;76.10
26414;DHT22;14108;53.668;10.288;2022-12-05T12:05:35;7.20;76.10
26414;DHT22;14108;53.668;10.288;2022-12-05T12:08:11;7.20;76.10
26414;DHT22;14108;53.668;10.288;2022-12-05T12:10:49;7.20;76.10
26414;DHT22;14108;53.668;10.288;2022-12-05T12:13:29;7.20;76.00
26414;DHT22;14108;53.668;10.288;2022-12-05T12:16:02;7.20;76.00
26414;DHT22;14108;53.668;10.288;2022-12-05T12:18:48;7.20;76.00
26414;DHT22;14108;53.668;10.288;2022-12-05T12:21:19;7.30;76.20
26414;DHT22;14108;53.668;10.288;2022-12-05T12:24:01;7.30;76.10
26414;DHT22;14108;53.668;10.288;2022-12-05T12:26:39;7.30;76.30
26414;DHT22;14108;53.668;10.288;2022-12-05T12:29:20;7.30;76.20
26414;DHT22;14108;53.668;10.288;2022-12-05T12:32:01;7.30;75.90
26414;DHT22;14108;53.668;10.288;2022-12-05T12:34:51;7.30;75.70
26414;DHT22;14108;53.668;10.288;2022-12-05T12:37:29;7.30;75.70
26414;DHT22;14108;53.668;10.288;2022-12-05T12:40:05;7.30;75.60
26414;DHT22;14108;53.668;10.288;2022-12-05T12:42:45;7.30;75.60
26414;DHT22;14108;53.668;10.288;2022-12-05T12:48:14;7.30;75.50
26414;DHT22;14108;53.668;10.288;2022-12-05T12:50:46;7.30;75.70
26414;DHT22;14108;53.668;10.288;2022-12-05T12:56:33;7.30;76.00
26414;DHT22;14108;53.668;10.288;2022-12-05T12:59:25;7.30;75.60
26414;DHT22;14108;53.668;10.288;2022-12-05T13:01:59;7.30;75.70
26414;DHT22;14108;53.668;10.288;2022-12-05T13:04:33;7.30;75.60
26414;DHT22;14108;53.668;10.288;2022-12-05T13:07:09;7.30;75.60
26414;DHT22;14108;53.668;10.288;2022-12-05T13:09:42;7.30;75.60
26414;DHT22;14108;53.668;10.288;2022-12-05T13:12:12;7.30;75.80
26414;DHT22;14108;53.668;10.288;2022-12-05T13:17:22;7.40;75.90
26414;DHT22;14108;53.668;10.288;2022-12-05T13:19:51;7.30;75.70
26414;DHT22;14108;53.668;10.288;2022-12-05T13:22:22;7.40;75.90
26414;DHT22;14108;53.668;10.288;2022-12-05T13:24:50;7.40;76.00
26414;DHT22;14108;53.668;10.288;2022-12-05T13:27:20;7.40;76.00
26414;DHT22;14108;53.668;10.288;2022-12-05T13:29:50;7.40;76.00
26414;DHT22;14108;53.668;10.288;2022-12-05T13:32:28;7.40;75.90
26414;DHT22;14108;53.668;10.288;2022-12-05T13:34:59;7.40;76.00
26414;DHT22;14108;53.668;10.288;2022-12-05T13:37:29;7.40;75.90
26414;DHT22;14108;53.668;10.288;2022-12-05T13:40:23;7.40;75.80
26414;DHT22;14108;53.668;10.288;2022-12-05T13:43:09;7.40;75.60
26414;DHT22;14108;53.668;10.288;2022-12-05T13:45:37;7.40;75.60
26414;DHT22;14108;53.668;10.288;2022-12-05T13:48:18;7.40;75.50
26414;DHT22;14108;53.668;10.288;2022-12-05T13:50:51;7.40;75.50
26414;DHT22;14108;53.668;10.288;2022-12-05T13:53:27;7.40;75.30
26414;DHT22;14108;53.668;10.288;2022-12-05T13:55:58;7.40;75.10
26414;DHT22;14108;53.668;10.288;2022-12-05T13:58:45;7.50;75.20
26414;DHT22;14108;53.668;10.288;2022-12-05T14:01:42;7.50;75.40
26414;DHT22;14108;53.668;10.288;2022-12-05T14:07:36;7.40;75.30
26414;DHT22;14108;53.668;10.288;2022-12-05T14:10:06;7.40;75.30
26414;DHT22;14108;53.668;10.288;2022-12-05T14:12:52;7.40;75.20
26414;DHT22;14108;53.668;10.288;2022-12-05T14:15:31;7.40;75.10
26414;DHT22;14108;53.668;10.288;2022-12-05T14:18:05;7.40;75.10
26414;DHT22;14108;53.668;10.288;2022-12-05T14:20:50;7.40;75.10
26414;DHT22;14108;53.668;10.288;2022-12-05T14:23:21;7.40;74.90
26414;DHT22;14108;53.668;10.288;2022-12-05T14:28:54;7.40;74.20
26414;DHT22;14108;53.668;10.288;2022-12-05T14:31:38;7.40;74.30
26414;DHT22;14108;53.668;10.288;2022-12-05T14:39:33;7.30;74.20
26414;DHT22;14108;53.668;10.288;2022-12-05T14:42:04;7.30;74.20
26414;DHT22;14108;53.668;10.288;2022-12-05T14:44:33;7.20;74.00
26414;DHT22;14108;53.668;10.288;2022-12-05T14:47:00;7.20;74.00
26414;DHT22;14108;53.668;10.288;2022-12-05T14:49:35;7.20;74.10
26414;DHT22;14108;53.668;10.288;2022-12-05T14:52:20;7.20;74.10
26414;DHT22;14108;53.668;10.288;2022-12-05T14:54:48;7.10;74.00
26414;DHT22;14108;53.668;10.288;2022-12-05T14:57:17;7.10;73.90
26414;DHT22;14108;53.668;10.288;2022-12-05T14:59:50;7.10;73.90
26414;DHT22;14108;53.668;10.288;2022-12-05T15:02:23;7.10;73.90
26414;DHT22;14108;53.668;10.288;2022-12-05T15:04:56;7.10;73.80
26414;DHT22;14108;53.668;10.288;2022-12-05T15:07:31;7.10;73.70
26414;DHT22;14108;53.668;10.288;2022-12-05T15:10:01;7.00;73.70
26414;DHT22;14108;53.668;10.288;2022-12-05T15:12:36;7.00;73.70
26414;DHT22;14108;53.668;10.288;2022-12-05T15:15:11;7.00;73.80
26414;DHT22;14108;53.668;10.288;2022-12-05T15:17:44;7.00;73.80
26414;DHT22;14108;53.668;10.288;2022-12-05T15:20:17;6.90;73.80
26414;DHT22;14108;53.668;10.288;2022-12-05T15:22:45;6.90;73.80
26414;DHT22;14108;53.668;10.288;2022-12-05T15:25:31;6.90;73.80
26414;DHT22;14108;53.668;10.288;2022-12-05T15:28:02;6.90;73.90
26414;DHT22;14108;53.668;10.288;2022-12-05T15:30:31;6.90;73.80
26414;DHT22;14108;53.668;10.288;2022-12-05T15:33:00;6.90;73.80
26414;DHT22;14108;53.668;10.288;2022-12-05T15:35:30;6.80;73.80
26414;DHT22;14108;53.668;10.288;2022-12-05T15:38:03;6.90;73.90
26414;DHT22;14108;53.668;10.288;2022-12-05T15:40:33;6.80;73.80
26414;DHT22;14108;53.668;10.288;2022-12-05T15:43:29;6.90;74.80
26414;DHT22;14108;53.668;10.288;2022-12-05T15:46:18;6.90;76.00
26414;DHT22;14108;53.668;10.288;2022-12-05T15:48:46;7.00;76.20
26414;DHT22;14108;53.668;10.288;2022-12-05T15:51:13;7.00;76.80
26414;DHT22;14108;53.668;10.288;2022-12-05T15:53:42;7.10;79.50
26414;DHT22;14108;53.668;10.288;2022-12-05T15:56:16;7.30;83.10
26414;DHT22;14108;53.668;10.288;2022-12-05T15:58:47;7.40;86.30
26414;DHT22;14108;53.668;10.288;2022-12-05T16:01:17;7.50;87.70
26414;DHT22;14108;53.668;10.288;2022-12-05T16:03:49;7.60;88.70
26414;DHT22;14108;53.668;10.288;2022-12-05T16:06:21;7.70;89.30
26414;DHT22;14108;53.668;10.288;2022-12-05T16:08:50;7.80;90.00
26414;DHT22;14108;53.668;10.288;2022-12-05T16:13:55;7.90;90.20
26414;DHT22;14108;53.668;10.288;2022-12-05T16:16:26;8.00;90.00
26414;DHT22;14108;53.668;10.288;2022-12-05T16:18:56;8.00;89.60
26414;DHT22;14108;53.668;10.288;2022-12-05T16:21:29;8.00;88.30
26414;DHT22;14108;53.668;10.288;2022-12-05T16:24:00;8.00;86.60
26414;DHT22;14108;53.668;10.288;2022-12-05T16:26:27;8.00;85.60
26414;DHT22;14108;53.668;10.288;2022-12-05T16:28:58;8.00;84.50
26414;DHT22;14108;53.668;10.288;2022-12-05T16:31:27;8.00;83.20
26414;DHT22;14108;53.668;10.288;2022-12-05T16:34:02;8.00;82.40
26414;DHT22;14108;53.668;10.288;2022-12-05T16:36:30;8.00;81.30
26414;DHT22;14108;53.668;10.288;2022-12-05T16:39:02;8.00;80.40
26414;DHT22;14108;53.668;10.288;2022-12-05T16:41:35;7.90;79.70
26414;DHT22;14108;53.668;10.288;2022-12-05T16:44:03;7.90;79.00
26414;DHT22;14108;53.668;10.288;2022-12-05T16:46:44;7.90;79.10
26414;DHT22;14108;53.668;10.288;2022-12-05T16:49:18;7.90;77.60
26414;DHT22;14108;53.668;10.288;2022-12-05T16:51:53;7.90;77.10
26414;DHT22;14108;53.668;10.288;2022-12-05T16:54:21;7.80;76.50
26414;DHT22;14108;53.668;10.288;2022-12-05T16:56:48;7.80;76.70